Pagina principale
METAR-TAF:

METAR-TAF

Aeroporti :

Grazzanise, Italia

latitudine: 41-03N, longitudine: 014-04E, altezza: 9 m

Osservazione

Il bollettino è stato emesso 59 minuti fa, alle 16:55 UTC
Temperature 10°C
Umidità 87%
Pressione 1019 hPa
Visibilità 10 km o più
Nubi sparse ad un'altezza di 2000 ft
Nuvoloso ad un'altezza di 7000 ft
pioggia debole

METAR: LIRM 201655Z /////KT 9999 -RA SCT020 BKN070 10/08 Q1019

Ora: 18:54 (17:54 UTC)

Previsione

Il bollettino è stato emesso 54 minuti fa, alle 17:00 UTC
Previsione valida dal 20 alle 18 UTC al 21 alle 03 UTC
Vento 5 kt da direzioni variabili
Visibilità: 8000 m
Nubi sparse ad un'altezza di 2000 ft
Nuvoloso ad un'altezza di 6000 ft
Temporaneamente
dal 20 alle 18 UTC al 20 alle 24 UTC
Visibilità: 5000 m
pioggia, foschia

TAF: LIRM 201700Z 2018/2103 VRB05KT 8000 SCT020 BKN060 TEMPO 2018/2024 5000 RA BR

Osservazioni e previsioni meteorologiche di più di 4000 aeroporti (messaggi METAR e TAF).

Le stazioni disponibili sono rappresentate dai dischi gialli e rossi sulla carta.

Puntare il mouse per vedere il nome della stazione.

Clicca sopra per visualizzare le osservazioni e previsioni meteorologiche.

Per cambiare la mappa : fare clic sui pulsanti verdi con una croce nera per ingrandire, il pulsante verde con un trattino per diminuire, o sulla freccia verde per le mappe adiacenti.


METAR-TAF: